Quinsam, Canada
Current Conditions -  °F | °C
As of 12:00 PM on Friday 31 Oct 2014 (Local Time) from CYBL Reporting Station
Broken Clouds Broken Clouds  
Wind Chill: 50°   Ceiling: 13000
Heat Index: 50°   Visibility: 30mi
Dew Point: 43°   Wind: 3mph
Humidity: 76%   Direction: 20°NNE
Pressure: 29.77"   Gusts: NA
Location:  49.98°N, 125.43°W
Report Text: CYBL 311900Z 02003KT 340V050 30SM FEW022 BKN130 BKN230 10/06 A2977 RMK SC2AC3CI2 SLP083
Loading
Personal Weather Stations






























Interactive Weather Map
Tropical Storm Tracking
New forecast layout! Learn more

10-Day Weather Forecast

Advertisements
Track Severe Weather on mobile